createdAt,value
2019-03-10T00:00:47.765Z,11.03
2019-03-10T00:03:21.760Z,14.00
2019-03-10T00:05:55.990Z,9.23
2019-03-10T00:08:31.870Z,11.50
2019-03-10T00:11:07.226Z,12.63
2019-03-10T00:13:41.007Z,20.87
2019-03-10T00:16:17.251Z,12.83
2019-03-10T00:18:50.895Z,7.13
2019-03-10T00:21:28.352Z,14.30
2019-03-10T00:24:02.120Z,14.97
2019-03-10T00:26:36.472Z,9.97
2019-03-10T00:29:10.491Z,8.17
2019-03-10T00:31:44.275Z,12.87
2019-03-10T00:34:17.895Z,8.67
2019-03-10T00:36:53.957Z,12.30
2019-03-10T00:40:47.381Z,19.53
2019-03-10T00:44:32.626Z,14.80
2019-03-10T00:48:04.652Z,12.23
2019-03-10T00:51:38.835Z,13.20
2019-03-10T00:54:14.280Z,14.67
2019-03-10T00:56:47.955Z,13.60
2019-03-10T00:59:21.795Z,14.90
2019-03-10T01:01:55.856Z,18.20
2019-03-10T01:04:29.975Z,8.70
2019-03-10T01:07:04.306Z,19.93
2019-03-10T01:09:38.077Z,12.10
2019-03-10T01:12:12.126Z,11.40
2019-03-10T01:14:46.192Z,19.10
2019-03-10T01:17:21.484Z,16.80
2019-03-10T01:19:55.724Z,17.57
2019-03-10T01:22:30.038Z,12.77
2019-03-10T01:25:03.763Z,14.37
2019-03-10T01:27:39.422Z,17.53
2019-03-10T01:30:19.251Z,11.23
2019-03-10T01:33:35.066Z,11.53
2019-03-10T01:36:15.957Z,15.93
2019-03-10T01:38:49.927Z,14.87
2019-03-10T01:41:23.612Z,17.13
2019-03-10T01:43:58.525Z,13.20
2019-03-10T01:46:32.607Z,16.13
2019-03-10T01:49:06.495Z,12.70
2019-03-10T01:51:40.284Z,9.63
2019-03-10T01:54:14.426Z,11.10
2019-03-10T01:56:50.753Z,11.20
2019-03-10T01:59:25.878Z,14.33
2019-03-10T02:01:59.663Z,10.97
2019-03-10T02:04:33.425Z,7.10
2019-03-10T02:07:08.326Z,12.80
2019-03-10T02:09:42.389Z,11.03
2019-03-10T02:12:17.371Z,13.80
2019-03-10T02:14:52.342Z,10.90
2019-03-10T02:17:27.151Z,8.43
2019-03-10T02:20:00.961Z,24.37
2019-03-10T02:22:35.098Z,12.67
2019-03-10T02:25:11.850Z,9.30
2019-03-10T02:27:46.783Z,11.53
2019-03-10T02:30:21.209Z,15.53
2019-03-10T02:32:54.915Z,14.70
2019-03-10T02:35:28.554Z,16.17
2019-03-10T02:38:02.926Z,8.83
2019-03-10T02:40:36.540Z,11.07
2019-03-10T02:43:11.693Z,13.60
2019-03-10T02:45:47.137Z,8.57
2019-03-10T02:48:20.972Z,18.20
2019-03-10T02:50:55.765Z,22.40
2019-03-10T02:53:29.587Z,13.67
2019-03-10T02:56:03.883Z,13.40
2019-03-10T02:58:38.515Z,10.23
2019-03-10T03:01:12.550Z,19.40
2019-03-10T03:03:46.246Z,14.33
2019-03-10T03:06:20.659Z,10.70
2019-03-10T03:08:54.792Z,11.43
2019-03-10T03:11:28.507Z,17.60
2019-03-10T03:14:02.220Z,14.60
2019-03-10T03:16:37.075Z,15.97
2019-03-10T03:19:10.883Z,9.27
2019-03-10T03:21:45.758Z,18.73
2019-03-10T03:24:19.567Z,12.90
2019-03-10T03:26:54.403Z,14.13
2019-03-10T03:29:30.270Z,13.13
2019-03-10T03:32:05.093Z,4.40
2019-03-10T03:34:39.042Z,7.60
2019-03-10T03:37:17.721Z,16.43
2019-03-10T03:39:54.162Z,11.10
2019-03-10T03:42:28.355Z,17.83
2019-03-10T03:45:03.337Z,11.87
2019-03-10T03:47:40.600Z,9.60
2019-03-10T03:50:14.405Z,15.93
2019-03-10T03:52:48.284Z,16.03
2019-03-10T03:55:22.101Z,12.17
2019-03-10T03:57:56.060Z,13.90
2019-03-10T04:00:29.868Z,14.20
2019-03-10T04:03:03.677Z,15.50
2019-03-10T04:05:37.377Z,12.57
2019-03-10T04:08:11.182Z,12.07
2019-03-10T04:10:46.630Z,9.30
2019-03-10T04:13:20.546Z,12.57
2019-03-10T04:15:55.283Z,14.43
2019-03-10T04:18:29.092Z,12.80
2019-03-10T04:21:02.785Z,14.00
2019-03-10T04:23:36.419Z,12.97
2019-03-10T04:26:10.497Z,11.30
2019-03-10T04:28:49.418Z,7.93
2019-03-10T04:31:25.480Z,18.40
2019-03-10T04:33:59.302Z,10.40
2019-03-10T04:36:34.169Z,13.40
2019-03-10T04:39:09.051Z,10.03
2019-03-10T04:41:43.058Z,9.43
2019-03-10T04:44:16.985Z,8.67
2019-03-10T04:46:51.218Z,15.23
2019-03-10T04:49:24.846Z,10.57
2019-03-10T04:52:00.577Z,7.60
2019-03-10T04:54:55.949Z,10.73
2019-03-10T04:57:30.376Z,11.90
2019-03-10T05:00:04.157Z,11.97
2019-03-10T05:02:39.865Z,13.50
2019-03-10T05:05:13.514Z,12.13
2019-03-10T05:07:47.609Z,8.97
2019-03-10T05:10:21.329Z,10.63
2019-03-10T05:12:55.099Z,13.87
2019-03-10T05:15:29.869Z,20.97
2019-03-10T05:18:03.606Z,17.50
2019-03-10T05:20:37.282Z,14.40
2019-03-10T05:23:41.000Z,15.13
2019-03-10T05:26:16.404Z,15.27
2019-03-10T05:28:51.593Z,17.23
2019-03-10T05:31:27.555Z,25.03
2019-03-10T05:34:01.344Z,12.33
2019-03-10T05:36:36.198Z,17.83
2019-03-10T05:39:10.219Z,13.80
2019-03-10T05:41:43.994Z,27.30
2019-03-10T05:44:19.130Z,20.50
2019-03-10T05:46:55.830Z,12.97
2019-03-10T05:49:30.857Z,12.10
2019-03-10T05:52:07.615Z,15.53
2019-03-10T05:54:41.758Z,13.17
2019-03-10T05:57:15.507Z,18.90
2019-03-10T05:59:49.242Z,15.10
2019-03-10T06:02:24.484Z,20.97
2019-03-10T06:04:59.314Z,14.60
2019-03-10T06:07:33.022Z,19.13
2019-03-10T06:10:07.194Z,22.83
2019-03-10T06:12:42.056Z,20.80
2019-03-10T06:15:15.775Z,12.80
2019-03-10T06:17:53.378Z,20.90
2019-03-10T06:20:27.257Z,19.53
2019-03-10T06:23:01.099Z,18.27
2019-03-10T06:25:35.195Z,20.30
2019-03-10T06:28:10.109Z,12.17
2019-03-10T06:30:43.900Z,15.90
2019-03-10T06:33:18.086Z,14.13
2019-03-10T06:35:52.312Z,13.93
2019-03-10T06:38:26.274Z,14.27
2019-03-10T06:40:59.992Z,17.87
2019-03-10T06:43:34.989Z,18.90
2019-03-10T06:46:12.228Z,17.23
2019-03-10T06:48:47.553Z,30.00
2019-03-10T06:51:22.752Z,10.97
2019-03-10T06:53:56.587Z,19.40
2019-03-10T06:56:30.410Z,21.83
2019-03-10T06:59:04.067Z,19.57
2019-03-10T07:01:38.841Z,13.43
2019-03-10T07:04:13.680Z,23.40
2019-03-10T07:06:47.424Z,20.70
2019-03-10T07:09:22.317Z,18.67
2019-03-10T07:11:56.131Z,10.77
2019-03-10T07:14:30.137Z,14.33
2019-03-10T07:17:05.633Z,19.43
2019-03-10T07:19:39.502Z,20.80
2019-03-10T07:22:15.146Z,15.43
2019-03-10T07:24:51.311Z,21.70
2019-03-10T07:27:27.512Z,27.73
2019-03-10T07:30:20.204Z,25.37
2019-03-10T07:33:08.041Z,18.60
2019-03-10T07:36:05.910Z,18.20
2019-03-10T07:38:48.913Z,14.70
2019-03-10T07:41:30.388Z,11.10
2019-03-10T07:44:25.894Z,14.63
2019-03-10T07:47:06.760Z,12.13
2019-03-10T07:50:00.356Z,13.30
2019-03-10T07:52:45.384Z,11.00
2019-03-10T07:55:38.464Z,13.57
2019-03-10T07:58:42.642Z,10.37
2019-03-10T08:01:42.022Z,7.03
2019-03-10T08:04:44.996Z,4.07
2019-03-10T08:07:36.515Z,15.90
2019-03-10T08:10:27.711Z,9.13
2019-03-10T08:13:31.505Z,8.97
2019-03-10T08:16:27.234Z,5.43
2019-03-10T08:19:20.054Z,10.67
2019-03-10T08:22:09.826Z,9.57
2019-03-10T08:25:02.465Z,18.17
2019-03-10T08:28:02.989Z,7.77
2019-03-10T08:30:58.593Z,7.00
2019-03-10T08:33:52.588Z,7.90
2019-03-10T08:36:48.229Z,6.00
2019-03-10T08:39:39.774Z,4.33
2019-03-10T08:42:32.306Z,5.13
2019-03-10T08:45:26.172Z,9.53
2019-03-10T08:48:32.626Z,12.50
2019-03-10T08:51:15.028Z,8.43
2019-03-10T08:54:11.451Z,9.77
2019-03-10T08:57:06.961Z,7.10
2019-03-10T09:00:04.401Z,13.10
2019-03-10T09:02:56.952Z,10.37
2019-03-10T09:06:03.900Z,6.77
2019-03-10T09:08:54.292Z,18.97
2019-03-10T09:11:52.757Z,14.10
2019-03-10T09:14:48.362Z,8.47
2019-03-10T09:17:43.882Z,11.43
2019-03-10T09:20:42.336Z,6.53
2019-03-10T09:23:37.840Z,12.63
2019-03-10T09:26:42.450Z,5.13
2019-03-10T09:29:26.103Z,14.07
2019-03-10T09:32:27.208Z,8.80
2019-03-10T09:35:09.822Z,6.67
2019-03-10T09:38:03.691Z,9.30
2019-03-10T09:40:43.939Z,5.40
2019-03-10T09:43:24.527Z,6.50
2019-03-10T09:46:05.983Z,5.23
2019-03-10T09:48:58.577Z,7.20
2019-03-10T09:52:02.793Z,5.47
2019-03-10T09:55:00.850Z,5.43
2019-03-10T09:57:45.846Z,5.63
2019-03-10T10:00:35.010Z,3.77
2019-03-10T10:03:33.574Z,5.23
2019-03-10T10:06:33.891Z,6.53
2019-03-10T10:09:21.920Z,13.03
2019-03-10T10:12:12.731Z,9.83
2019-03-10T10:15:03.633Z,5.43
2019-03-10T10:17:59.125Z,8.83
2019-03-10T10:21:00.782Z,4.37
2019-03-10T10:23:44.389Z,8.00
2019-03-10T10:26:43.795Z,7.63
2019-03-10T10:29:48.395Z,2.90
2019-03-10T10:32:31.767Z,4.17
2019-03-10T10:35:13.815Z,6.67
2019-03-10T10:38:18.229Z,4.90
2019-03-10T10:41:07.789Z,2.97
2019-03-10T10:43:59.137Z,3.37
2019-03-10T10:47:00.054Z,4.57
2019-03-10T10:49:57.162Z,2.30
2019-03-10T10:52:58.763Z,6.97
2019-03-10T10:55:51.154Z,4.90
2019-03-10T10:58:46.853Z,2.77
2019-03-10T11:01:33.134Z,1.73
2019-03-10T11:04:31.912Z,4.33
2019-03-10T11:07:22.502Z,1.73
2019-03-10T11:10:15.138Z,2.83
2019-03-10T11:13:12.280Z,2.03
2019-03-10T11:16:00.313Z,1.50
2019-03-10T11:18:50.229Z,3.90
2019-03-10T11:21:52.565Z,2.07
2019-03-10T11:24:35.159Z,2.93
2019-03-10T11:27:34.339Z,4.60
2019-03-10T11:30:35.780Z,3.17
2019-03-10T11:33:29.868Z,2.13
2019-03-10T11:36:19.927Z,2.90
2019-03-10T11:39:11.134Z,4.13
2019-03-10T11:42:06.841Z,1.80
2019-03-10T11:44:49.244Z,3.20
2019-03-10T11:48:00.301Z,3.33
2019-03-10T11:50:55.712Z,1.90
2019-03-10T11:53:54.490Z,5.43
2019-03-10T11:56:47.524Z,2.37
2019-03-10T11:59:26.757Z,3.40
2019-03-10T12:02:18.178Z,2.20
2019-03-10T12:05:06.407Z,3.27
2019-03-10T12:07:51.372Z,1.40
2019-03-10T12:10:26.098Z,3.70
2019-03-10T12:13:01.406Z,3.30
2019-03-10T12:15:36.107Z,3.70
2019-03-10T12:18:10.257Z,4.20
2019-03-10T12:20:44.126Z,4.43
2019-03-10T12:23:20.998Z,4.90
2019-03-10T12:25:55.805Z,8.17
2019-03-10T12:28:31.654Z,11.23
2019-03-10T12:31:05.461Z,1.83
2019-03-10T12:33:39.165Z,1.07
2019-03-10T12:36:13.931Z,1.63
2019-03-10T12:38:51.559Z,0.93
2019-03-10T12:41:26.409Z,1.40
2019-03-10T12:44:01.384Z,4.70
2019-03-10T12:46:35.490Z,3.90
2019-03-10T12:49:09.405Z,3.17
2019-03-10T12:51:43.263Z,4.00
2019-03-10T12:54:16.942Z,2.63
2019-03-10T12:56:51.148Z,2.20
2019-03-10T12:59:26.682Z,3.23
2019-03-10T13:02:04.051Z,8.37
2019-03-10T13:04:37.908Z,8.30
2019-03-10T13:07:11.863Z,3.10
2019-03-10T13:09:48.061Z,4.10
2019-03-10T13:12:23.271Z,5.93
2019-03-10T13:14:59.738Z,1.90
2019-03-10T13:17:33.413Z,3.50
2019-03-10T13:20:08.558Z,1.60
2019-03-10T13:22:42.474Z,11.40
2019-03-10T13:25:16.428Z,4.00
2019-03-10T13:27:50.178Z,3.23
2019-03-10T13:30:24.775Z,5.33
2019-03-10T13:32:58.592Z,1.60
2019-03-10T13:35:34.198Z,5.03
2019-03-10T13:38:10.731Z,9.77
2019-03-10T13:40:44.814Z,5.03
2019-03-10T13:43:21.145Z,2.13
2019-03-10T13:45:55.323Z,5.30
2019-03-10T13:48:30.467Z,3.90
2019-03-10T13:51:04.410Z,4.77
2019-03-10T13:53:39.833Z,6.53
2019-03-10T13:56:14.229Z,10.40
2019-03-10T13:58:49.936Z,2.90
2019-03-10T14:01:26.023Z,2.40
2019-03-10T14:04:00.921Z,1.93
2019-03-10T14:06:34.834Z,5.20
2019-03-10T14:09:10.647Z,7.60
2019-03-10T14:11:44.783Z,4.10
2019-03-10T14:14:21.165Z,1.90
2019-03-10T14:16:54.806Z,3.27
2019-03-10T14:19:28.493Z,6.50
2019-03-10T14:22:02.225Z,3.17
2019-03-10T14:24:36.220Z,1.80
2019-03-10T14:27:12.982Z,8.23
2019-03-10T14:29:49.445Z,2.43
2019-03-10T14:32:23.042Z,2.93
2019-03-10T14:34:57.226Z,2.23
2019-03-10T14:37:33.524Z,1.13
2019-03-10T14:40:11.242Z,2.17
2019-03-10T14:42:46.663Z,1.83
2019-03-10T14:45:22.245Z,1.23
2019-03-10T14:47:56.954Z,3.50
2019-03-10T14:50:30.680Z,3.00
2019-03-10T14:53:06.179Z,1.37
2019-03-10T14:55:40.351Z,2.40
2019-03-10T14:58:18.834Z,1.17
2019-03-10T15:00:57.492Z,1.93
2019-03-10T15:03:31.348Z,3.30
2019-03-10T15:06:04.991Z,3.60
2019-03-10T15:08:38.946Z,3.23
2019-03-10T15:11:13.705Z,2.90
2019-03-10T15:13:48.713Z,2.03
2019-03-10T15:16:24.380Z,6.83
2019-03-10T15:18:58.180Z,2.30
2019-03-10T15:21:32.068Z,2.00
2019-03-10T15:24:09.581Z,0.80
2019-03-10T15:26:46.101Z,4.30
2019-03-10T15:29:21.705Z,2.23
2019-03-10T15:31:57.671Z,1.90
2019-03-10T15:34:35.260Z,2.60
2019-03-10T15:37:11.859Z,3.27
2019-03-10T15:39:47.175Z,1.20
2019-03-10T15:42:21.601Z,1.27
2019-03-10T15:44:55.859Z,2.20
2019-03-10T15:47:32.894Z,0.93
2019-03-10T15:50:11.065Z,3.60
2019-03-10T15:52:44.915Z,1.40
2019-03-10T15:55:19.370Z,3.47
2019-03-10T15:57:53.234Z,1.60
2019-03-10T16:00:28.424Z,1.63
2019-03-10T16:03:02.454Z,2.40
2019-03-10T16:05:37.447Z,1.60
2019-03-10T16:08:12.404Z,1.10
2019-03-10T16:10:46.262Z,1.10
2019-03-10T16:13:24.893Z,0.93
2019-03-10T16:15:59.826Z,1.33
2019-03-10T16:18:33.743Z,2.60
2019-03-10T16:21:07.922Z,1.37
2019-03-10T16:23:41.808Z,1.40
2019-03-10T16:26:16.385Z,1.70
2019-03-10T16:28:51.327Z,1.33
2019-03-10T16:31:26.255Z,1.50
2019-03-10T16:34:01.807Z,1.57
2019-03-10T16:36:38.000Z,1.57
2019-03-10T16:39:12.908Z,1.50
2019-03-10T16:41:49.469Z,2.33
2019-03-10T16:44:23.701Z,1.50
2019-03-10T16:46:58.357Z,3.53
2019-03-10T16:49:34.137Z,1.70
2019-03-10T16:52:08.488Z,3.27
2019-03-10T16:54:44.151Z,2.70
2019-03-10T16:57:18.585Z,2.83
2019-03-10T16:59:52.436Z,4.70
2019-03-10T17:02:27.485Z,3.07
2019-03-10T17:05:02.950Z,3.23
2019-03-10T17:07:36.553Z,2.73
2019-03-10T17:10:15.379Z,4.90
2019-03-10T17:12:50.219Z,3.73
2019-03-10T17:15:24.833Z,5.93
2019-03-10T17:17:58.545Z,3.87
2019-03-10T17:20:32.501Z,3.43
2019-03-10T17:23:06.210Z,6.53
2019-03-10T17:25:40.434Z,9.23
2019-03-10T17:28:14.333Z,9.57
2019-03-10T17:30:50.136Z,4.90
2019-03-10T17:33:25.112Z,2.30
2019-03-10T17:35:59.757Z,1.70
2019-03-10T17:38:33.753Z,1.70
2019-03-10T17:41:09.531Z,5.90
2019-03-10T17:43:43.457Z,2.10
2019-03-10T17:46:18.625Z,2.70
2019-03-10T17:48:52.639Z,2.40
2019-03-10T17:51:26.457Z,2.60
2019-03-10T17:54:00.190Z,2.03
2019-03-10T17:56:35.911Z,4.97
2019-03-10T17:59:10.485Z,2.67
2019-03-10T18:01:46.482Z,2.60
2019-03-10T18:04:21.451Z,2.60
2019-03-10T18:06:55.522Z,2.23
2019-03-10T18:09:31.056Z,1.90
2019-03-10T18:12:05.342Z,2.10
2019-03-10T18:14:42.278Z,2.00
2019-03-10T18:17:19.478Z,1.10
2019-03-10T18:19:54.549Z,1.23
2019-03-10T18:22:28.409Z,1.30
2019-03-10T18:25:02.262Z,1.57
2019-03-10T18:27:36.619Z,1.20
2019-03-10T18:30:16.574Z,1.50
2019-03-10T18:32:51.606Z,2.10
2019-03-10T18:35:25.386Z,2.83
2019-03-10T18:38:03.776Z,2.50
2019-03-10T18:40:37.948Z,1.50
2019-03-10T18:43:11.689Z,1.20
2019-03-10T18:45:50.694Z,1.63
2019-03-10T18:48:26.676Z,2.40
2019-03-10T18:51:00.696Z,1.80
2019-03-10T18:53:36.966Z,5.00
2019-03-10T18:56:11.430Z,1.87
2019-03-10T18:58:45.112Z,2.20
2019-03-10T19:01:22.342Z,4.97
2019-03-10T19:03:56.545Z,1.43
2019-03-10T19:06:31.898Z,3.10
2019-03-10T19:09:07.722Z,1.20
2019-03-10T19:11:43.209Z,2.23
2019-03-10T19:14:17.365Z,1.80
2019-03-10T19:16:51.118Z,2.23
2019-03-10T19:19:32.071Z,3.87
2019-03-10T19:22:06.279Z,2.03
2019-03-10T19:24:42.927Z,1.70
2019-03-10T19:27:29.749Z,2.10
2019-03-10T19:29:57.648Z,2.93
2019-03-10T19:32:32.898Z,3.60
2019-03-10T19:35:11.759Z,4.13
2019-03-10T19:37:48.266Z,2.80
2019-03-10T19:40:23.450Z,2.57
2019-03-10T19:42:57.550Z,1.70
2019-03-10T19:45:32.322Z,4.03
2019-03-10T19:48:06.202Z,2.13
2019-03-10T19:50:40.055Z,2.97
2019-03-10T19:53:16.020Z,2.80
2019-03-10T19:55:50.793Z,5.13
2019-03-10T19:58:26.675Z,6.90
2019-03-10T20:01:03.622Z,13.27
2019-03-10T20:03:38.253Z,12.80
2019-03-10T20:06:12.039Z,13.10
2019-03-10T20:08:48.795Z,16.20
2019-03-10T20:11:22.996Z,14.70
2019-03-10T20:13:57.520Z,13.20
2019-03-10T20:16:32.634Z,13.50
2019-03-10T20:19:08.237Z,13.53
2019-03-10T20:21:45.283Z,16.53
2019-03-10T20:24:19.211Z,18.70
2019-03-10T20:26:52.880Z,14.60
2019-03-10T20:29:28.248Z,14.27
2019-03-10T20:32:13.232Z,15.57
2019-03-10T20:34:37.299Z,15.13
2019-03-10T20:37:11.112Z,12.97
2019-03-10T20:39:48.415Z,19.73
2019-03-10T20:42:24.001Z,14.50
2019-03-10T20:44:57.959Z,12.40
2019-03-10T20:47:32.013Z,14.80
2019-03-10T20:50:06.220Z,11.17
2019-03-10T20:52:40.275Z,10.27
2019-03-10T20:55:17.027Z,10.30
2019-03-10T20:57:51.058Z,8.13
2019-03-10T21:00:25.090Z,8.70
2019-03-10T21:02:58.944Z,13.30
2019-03-10T21:05:32.721Z,9.57
2019-03-10T21:08:06.454Z,17.70
2019-03-10T21:10:41.168Z,11.90
2019-03-10T21:13:15.517Z,11.57
2019-03-10T21:15:49.806Z,9.20
2019-03-10T21:18:23.842Z,9.40
2019-03-10T21:21:00.715Z,6.93
2019-03-10T21:23:34.668Z,7.10
2019-03-10T21:26:08.526Z,6.80
2019-03-10T21:28:42.359Z,7.47
2019-03-10T21:31:17.157Z,5.07
2019-03-10T21:33:51.024Z,7.57
2019-03-10T21:36:24.961Z,6.20
2019-03-10T21:38:59.320Z,6.60
2019-03-10T21:41:33.427Z,9.50
2019-03-10T21:44:07.645Z,6.60
2019-03-10T21:46:41.848Z,3.80
2019-03-10T21:49:15.868Z,6.63
2019-03-10T21:51:49.632Z,3.80
2019-03-10T21:54:23.663Z,6.47
2019-03-10T21:56:57.699Z,6.87
2019-03-10T21:59:31.532Z,3.43
2019-03-10T22:02:05.916Z,5.30
2019-03-10T22:04:39.845Z,4.77
2019-03-10T22:07:13.483Z,3.53
2019-03-10T22:09:47.194Z,5.27
2019-03-10T22:12:21.061Z,4.30
2019-03-10T22:14:55.797Z,3.40
2019-03-10T22:17:29.724Z,3.70
2019-03-10T22:20:04.745Z,2.50
2019-03-10T22:22:48.236Z,3.40
2019-03-10T22:25:14.320Z,2.23
2019-03-10T22:27:48.472Z,2.00
2019-03-10T22:30:24.096Z,2.23
2019-03-10T22:32:59.103Z,2.00
2019-03-10T22:35:32.802Z,2.17
2019-03-10T22:38:06.720Z,1.43
2019-03-10T22:40:41.553Z,1.80
2019-03-10T22:43:15.255Z,2.87
2019-03-10T22:45:48.909Z,2.70
2019-03-10T22:48:23.072Z,1.03
2019-03-10T22:50:56.743Z,0.77
2019-03-10T22:53:32.484Z,2.23
2019-03-10T22:56:07.332Z,1.23
2019-03-10T22:58:41.324Z,1.53
2019-03-10T23:01:15.182Z,1.27
2019-03-10T23:03:50.409Z,1.53
2019-03-10T23:06:24.371Z,1.10
2019-03-10T23:08:58.249Z,3.23
2019-03-10T23:11:32.313Z,1.60
2019-03-10T23:14:08.827Z,3.43
2019-03-10T23:16:42.538Z,2.13
2019-03-10T23:19:16.702Z,2.07
2019-03-10T23:21:50.661Z,2.13
2019-03-10T23:24:26.180Z,2.43
2019-03-10T23:27:02.888Z,3.27
2019-03-10T23:29:36.690Z,3.40
2019-03-10T23:32:10.453Z,3.00
2019-03-10T23:34:45.302Z,2.87
2019-03-10T23:37:20.090Z,2.40
2019-03-10T23:39:54.481Z,3.27
2019-03-10T23:42:29.833Z,4.53
2019-03-10T23:45:03.734Z,4.40
2019-03-10T23:47:38.467Z,4.20
2019-03-10T23:50:12.822Z,4.00
2019-03-10T23:52:46.827Z,6.93
2019-03-10T23:55:21.820Z,6.27
2019-03-10T23:57:56.561Z,9.03
